Terminal Aerodrome Forecast
Issued by NWS

Home | Current Version | Previous Version | Text Only | Print | Product List | Glossary On
Versions: 1 2 3 4 5 6 7 8 9 10 11 12
000
FTUS44 KCRP 292329
TAFALI
TAF
KALI 292329Z 3000/3024 15007KT P6SM SCT250
     FM300800 VRB03KT P6SM FEW025
      TEMPO 3010/3014 BKN025
     FM301500 18005KT P6SM BKN035
     FM301900 13008G15KT P6SM SCT050=

USA.gov is the U.S. government's official web portal to all federal, state and local government web resources and services.